Time,TemperatureF,DewpointF,PressureIn,WindDirection,WindDirectionDegrees,WindSpeedMPH,WindSpeedGustMPH,Humidity,HourlyPrecipIn,Conditions,Clouds,dailyrainin,SoftwareType,DateUTC
2013-03-25 00:00:00,45.8,25.7,30.19,NNE,22,1.0,4.0,45,0.00,,SKC,0.00,VWS V14.01,2013-03-25 05:00:00,
2013-03-25 00:30:00,45.0,26.0,30.20,NNE,22,1.0,5.0,47,0.00,,SKC,0.00,VWS V14.01,2013-03-25 05:30:00,
2013-03-25 01:00:00,44.6,26.1,30.20,NNE,22,1.0,6.0,48,0.00,,SKC,0.00,VWS V14.01,2013-03-25 06:00:00,
2013-03-25 01:30:00,44.3,26.4,30.20,NNE,22,0.0,3.0,49,0.00,,SKC,0.00,VWS V14.01,2013-03-25 06:30:00,
2013-03-25 02:00:00,43.9,26.0,30.21,NNE,22,1.0,5.0,49,0.00,,SKC,0.00,VWS V14.01,2013-03-25 07:00:00,
2013-03-25 02:30:00,42.9,26.0,30.22,NNE,22,0.0,2.0,51,0.00,,SKC,0.00,VWS V14.01,2013-03-25 07:30:00,
2013-03-25 03:00:00,41.9,26.0,30.23,NNE,22,0.0,2.0,53,0.00,,SKC,0.00,VWS V14.01,2013-03-25 08:00:00,
2013-03-25 03:30:00,41.4,26.0,30.23,NNE,22,0.0,3.0,54,0.00,,SKC,0.00,VWS V14.01,2013-03-25 08:30:00,
2013-03-25 04:00:00,40.7,25.8,30.22,NNE,22,0.0,4.0,55,0.00,,SKC,0.00,VWS V14.01,2013-03-25 09:00:00,
2013-03-25 04:30:00,40.0,26.0,30.23,NNE,22,1.0,5.0,57,0.00,,SKC,0.00,VWS V14.01,2013-03-25 09:30:00,
2013-03-25 05:00:00,39.5,26.0,30.25,NNE,22,1.0,5.0,58,0.00,,SKC,0.00,VWS V14.01,2013-03-25 10:00:00,
2013-03-25 05:30:00,39.2,25.7,30.26,NNE,22,1.0,7.0,58,0.00,,SKC,0.00,VWS V14.01,2013-03-25 10:30:00,
2013-03-25 06:00:00,39.5,25.1,30.27,NNE,22,1.0,7.0,56,0.00,,SKC,0.00,VWS V14.01,2013-03-25 11:00:00,
2013-03-25 06:30:00,39.7,24.9,30.29,NNE,22,2.0,7.0,55,0.00,,SKC,0.00,VWS V14.01,2013-03-25 11:30:00,
2013-03-25 07:00:00,39.7,24.9,30.32,NNE,22,2.0,9.0,55,0.00,,SKC,0.00,VWS V14.01,2013-03-25 12:00:00,
2013-03-25 07:30:00,39.0,23.8,30.32,NNE,22,1.0,9.0,54,0.00,,SKC,0.00,VWS V14.01,2013-03-25 12:30:00,
2013-03-25 08:00:00,39.1,23.4,30.35,NE,45,3.0,12.0,53,0.00,,SKC,0.00,VWS V14.01,2013-03-25 13:00:00,
2013-03-25 08:30:00,40.1,23.4,30.36,ENE,68,2.0,10.0,51,0.00,,SKC,0.00,VWS V14.01,2013-03-25 13:30:00,
2013-03-25 09:00:00,41.6,23.4,30.39,ENE,68,3.0,11.0,48,0.00,,SKC,0.00,VWS V14.01,2013-03-25 14:00:00,
2013-03-25 09:30:00,44.0,23.5,30.39,ENE,68,3.0,10.0,44,0.00,,SKC,0.00,VWS V14.01,2013-03-25 14:30:00,
2013-03-25 10:00:00,45.1,22.2,30.40,NNE,22,5.0,15.0,40,0.00,,SKC,0.00,VWS V14.01,2013-03-25 15:00:00,
2013-03-25 10:30:00,47.7,22.1,30.40,NNE,22,4.0,16.0,36,0.00,,SKC,0.00,VWS V14.01,2013-03-25 15:30:00,
2013-03-25 11:00:00,49.6,20.2,30.41,NE,45,6.0,19.0,31,0.00,,SKC,0.00,VWS V14.01,2013-03-25 16:00:00,
2013-03-25 11:30:00,51.3,18.5,30.41,NE,45,5.0,17.0,27,0.00,,SKC,0.00,VWS V14.01,2013-03-25 16:30:00,
2013-03-25 12:00:00,52.7,17.9,30.41,NE,45,5.0,14.0,25,0.00,,SKC,0.00,VWS V14.01,2013-03-25 17:00:00,
2013-03-25 12:30:00,54.2,17.2,30.40,NE,45,3.0,10.0,23,0.00,,SKC,0.00,VWS V14.01,2013-03-25 17:30:00,
2013-03-25 13:00:00,55.5,15.1,30.39,East,90,3.0,12.0,20,0.00,,SKC,0.00,VWS V14.01,2013-03-25 18:00:00,
2013-03-25 13:30:00,56.3,15.8,30.37,North,0,4.0,13.0,20,0.00,,SKC,0.00,VWS V14.01,2013-03-25 18:30:00,
2013-03-25 14:00:00,57.8,15.8,30.35,East,90,3.0,12.0,19,0.00,,SKC,0.00,VWS V14.01,2013-03-25 19:00:00,
2013-03-25 14:30:00,58.2,13.6,30.35,ENE,68,3.0,12.0,17,0.00,,SKC,0.00,VWS V14.01,2013-03-25 19:30:00,
2013-03-25 15:00:00,58.9,15.5,30.33,East,90,4.0,15.0,18,0.00,,SKC,0.00,VWS V14.01,2013-03-25 20:00:00,
2013-03-25 15:30:00,59.5,16.0,30.31,NNW,338,2.0,11.0,18,0.00,,SKC,0.00,VWS V14.01,2013-03-25 20:30:00,
2013-03-25 16:00:00,59.7,16.1,30.29,East,90,2.0,10.0,18,0.00,,SKC,0.00,VWS V14.01,2013-03-25 21:00:00,
2013-03-25 16:30:00,60.5,18.1,30.29,SE,135,3.0,12.0,19,0.00,,SKC,0.00,VWS V14.01,2013-03-25 21:30:00,
2013-03-25 17:00:00,60.6,18.1,30.28,ENE,68,2.0,12.0,19,0.00,,SKC,0.00,VWS V14.01,2013-03-25 22:00:00,
2013-03-25 17:30:00,60.5,18.1,30.28,SE,135,3.0,10.0,19,0.00,,SKC,0.00,VWS V14.01,2013-03-25 22:30:00,
2013-03-25 18:00:00,60.2,17.8,30.29,ENE,68,2.0,10.0,19,0.00,,SKC,0.00,VWS V14.01,2013-03-25 23:00:00,
2013-03-25 18:30:00,59.7,18.6,30.29,ENE,68,2.0,11.0,20,0.00,,SKC,0.00,VWS V14.01,2013-03-25 23:30:00,
2013-03-25 19:00:00,58.8,19.0,30.29,ENE,68,1.0,6.0,21,0.00,,SKC,0.00,VWS V14.01,2013-03-26 00:00:00,
2013-03-25 19:30:00,57.2,19.8,30.31,ESE,112,1.0,8.0,23,0.00,,SKC,0.00,VWS V14.01,2013-03-26 00:30:00,
2013-03-25 20:00:00,55.3,20.1,30.32,East,90,1.0,6.0,25,0.00,,SKC,0.00,VWS V14.01,2013-03-26 01:00:00,
2013-03-25 20:30:00,53.3,20.2,30.33,East,90,1.0,5.0,27,0.00,,SKC,0.00,VWS V14.01,2013-03-26 01:30:00,
2013-03-25 21:00:00,51.8,20.6,30.35,East,90,0.0,4.0,29,0.00,,SKC,0.00,VWS V14.01,2013-03-26 02:00:00,
2013-03-25 21:30:00,50.5,21.0,30.36,East,90,0.0,2.0,31,0.00,,SKC,0.00,VWS V14.01,2013-03-26 02:30:00,
2013-03-25 22:00:00,49.8,21.9,30.37,East,90,0.0,4.0,33,0.00,,SKC,0.00,VWS V14.01,2013-03-26 03:00:00,
2013-03-25 22:30:00,49.0,22.6,30.40,East,90,0.0,3.0,35,0.00,,SKC,0.00,VWS V14.01,2013-03-26 03:30:00,
2013-03-25 23:00:00,48.1,23.1,30.41,East,90,0.0,4.0,37,0.00,,SKC,0.00,VWS V14.01,2013-03-26 04:00:00,
2013-03-25 23:30:00,47.1,23.4,30.43,East,90,0.0,1.0,39,0.00,,SKC,0.00,VWS V14.01,2013-03-26 04:30:00,